createdAt,value
2022-12-27T00:01:09.974Z,101182.06
2022-12-27T00:03:37.534Z,101184.66
2022-12-27T00:06:07.346Z,101198.31
2022-12-27T00:08:34.841Z,101189.91
2022-12-27T00:11:05.656Z,101191.75
2022-12-27T00:13:33.180Z,101187.09
2022-12-27T00:16:04.873Z,101198.81
2022-12-27T00:18:32.459Z,101203.66
2022-12-27T00:21:00.380Z,101209.00
2022-12-27T00:23:27.916Z,101211.03
2022-12-27T00:26:00.603Z,101211.34
2022-12-27T00:28:30.278Z,101214.78
2022-12-27T00:30:57.903Z,101197.16
2022-12-27T00:33:27.242Z,101203.03
2022-12-27T00:35:54.713Z,101219.38
2022-12-27T00:38:22.269Z,101218.66
2022-12-27T00:40:49.809Z,101203.13
2022-12-27T00:43:17.402Z,101212.03
2022-12-27T00:45:45.020Z,101209.25
2022-12-27T00:48:12.638Z,101205.66
2022-12-27T00:50:42.219Z,101203.63
2022-12-27T00:53:09.810Z,101212.50
2022-12-27T00:55:37.339Z,101205.78
2022-12-27T00:58:04.893Z,101216.44
2022-12-27T01:00:32.422Z,101224.38
2022-12-27T01:02:59.917Z,101225.63
2022-12-27T01:05:27.453Z,101233.59
2022-12-27T01:07:56.556Z,101225.81
2022-12-27T01:10:24.073Z,101221.00
2022-12-27T01:12:51.639Z,101220.00
2022-12-27T01:15:19.197Z,101231.00
2022-12-27T01:17:46.743Z,101232.78
2022-12-27T01:20:14.212Z,101232.28
2022-12-27T01:22:41.750Z,101238.88
2022-12-27T01:25:10.819Z,101241.97
2022-12-27T01:27:38.323Z,101238.47
2022-12-27T01:30:06.095Z,101234.28
2022-12-27T01:32:33.635Z,101243.00
2022-12-27T01:35:01.196Z,101245.59
2022-12-27T01:37:28.910Z,101251.31
2022-12-27T01:39:56.473Z,101246.72
2022-12-27T01:42:43.010Z,101258.31
2022-12-27T01:45:12.468Z,101241.09
2022-12-27T01:47:43.350Z,101243.69
2022-12-27T01:50:12.531Z,101248.34
2022-12-27T01:52:41.130Z,101252.91
2022-12-27T01:55:10.654Z,101254.78
2022-12-27T01:57:39.548Z,101251.91
2022-12-27T02:00:07.657Z,101244.50
2022-12-27T02:02:35.268Z,101261.84
2022-12-27T02:05:02.947Z,101260.03
2022-12-27T02:07:32.304Z,101269.38
2022-12-27T02:09:59.762Z,101277.00
2022-12-27T02:12:27.339Z,101273.16
2022-12-27T02:14:56.207Z,101265.53
2022-12-27T02:17:24.135Z,101270.44
2022-12-27T02:19:53.646Z,101268.13
2022-12-27T02:22:31.581Z,101265.78
2022-12-27T02:25:04.725Z,101280.81
2022-12-27T02:27:38.256Z,101273.28
2022-12-27T02:30:07.395Z,101266.03
2022-12-27T02:32:36.074Z,101275.56
2022-12-27T02:35:08.581Z,101290.63
2022-12-27T02:37:36.892Z,101289.22
2022-12-27T02:40:18.596Z,101299.31
2022-12-27T02:43:03.727Z,101308.09
2022-12-27T02:45:49.834Z,101302.72
2022-12-27T02:48:35.116Z,101303.09
2022-12-27T02:51:37.007Z,101306.09
2022-12-27T02:54:07.423Z,101307.72
2022-12-27T02:56:54.029Z,101319.41
2022-12-27T02:59:25.114Z,101307.25
2022-12-27T03:02:13.632Z,101304.03
2022-12-27T03:04:45.963Z,101307.13
2022-12-27T03:07:15.829Z,101316.97
2022-12-27T03:10:06.947Z,101309.72
2022-12-27T03:12:58.883Z,101310.50
2022-12-27T03:15:51.316Z,101301.63
2022-12-27T03:18:21.751Z,101305.22
2022-12-27T03:21:07.154Z,101304.72
2022-12-27T03:23:52.028Z,101320.16
2022-12-27T03:26:19.507Z,101311.88
2022-12-27T03:29:04.442Z,101305.53
2022-12-27T03:31:55.615Z,101306.53
2022-12-27T03:34:38.218Z,101312.78
2022-12-27T03:37:30.630Z,101312.47
2022-12-27T03:40:02.624Z,101307.38
2022-12-27T03:42:47.755Z,101313.16
2022-12-27T03:45:15.259Z,101316.38
2022-12-27T03:47:42.885Z,101323.41
2022-12-27T03:50:13.103Z,101336.72
2022-12-27T03:52:41.638Z,101350.88
2022-12-27T03:55:09.247Z,101344.69
2022-12-27T03:57:36.747Z,101338.41
2022-12-27T04:00:04.927Z,101347.03
2022-12-27T04:02:32.637Z,101341.53
2022-12-27T04:05:00.342Z,101352.47
2022-12-27T04:07:29.208Z,101347.44
2022-12-27T04:10:14.033Z,101350.38
2022-12-27T04:12:58.901Z,101351.31
2022-12-27T04:15:43.912Z,101339.25
2022-12-27T04:18:28.987Z,101343.81
2022-12-27T04:21:13.983Z,101356.50
2022-12-27T04:24:00.124Z,101351.44
2022-12-27T04:26:45.041Z,101344.25
2022-12-27T04:29:29.830Z,101366.41
2022-12-27T04:32:14.513Z,101361.28
2022-12-27T04:34:43.488Z,101370.41
2022-12-27T04:37:11.646Z,101369.69
2022-12-27T04:39:40.558Z,101372.00
2022-12-27T04:42:25.488Z,101380.78
2022-12-27T04:45:15.070Z,101378.53
2022-12-27T04:48:02.970Z,101376.06
2022-12-27T04:50:49.363Z,101385.19
2022-12-27T04:53:35.334Z,101374.22
2022-12-27T04:56:04.461Z,101387.31
2022-12-27T04:58:32.055Z,101381.13
2022-12-27T05:01:18.438Z,101386.31
2022-12-27T05:03:46.457Z,101384.63
2022-12-27T05:06:14.007Z,101384.50
2022-12-27T05:08:58.895Z,101378.66
2022-12-27T05:11:45.671Z,101383.75
2022-12-27T05:14:14.695Z,101385.16
2022-12-27T05:16:42.786Z,101383.06
2022-12-27T05:19:12.608Z,101386.38
2022-12-27T05:22:00.939Z,101397.16
2022-12-27T05:24:46.164Z,101398.97
2022-12-27T05:27:15.002Z,101400.09
2022-12-27T05:29:42.489Z,101413.69
2022-12-27T05:32:13.322Z,101411.09
2022-12-27T05:34:41.330Z,101422.44
2022-12-27T05:37:08.815Z,101423.31
2022-12-27T05:39:36.378Z,101412.63
2022-12-27T05:42:04.232Z,101427.81
2022-12-27T05:44:33.166Z,101435.41
2022-12-27T05:47:00.780Z,101422.53
2022-12-27T05:49:28.259Z,101427.03
2022-12-27T05:51:55.883Z,101428.59
2022-12-27T05:54:23.378Z,101420.72
2022-12-27T05:56:50.911Z,101429.16
2022-12-27T05:59:18.384Z,101439.91
2022-12-27T06:01:47.446Z,101419.97
2022-12-27T06:04:15.119Z,101444.41
2022-12-27T06:06:42.681Z,101446.47
2022-12-27T06:09:10.357Z,101451.28
2022-12-27T06:11:37.813Z,101439.00
2022-12-27T06:14:05.319Z,101450.09
2022-12-27T06:16:32.906Z,101452.72
2022-12-27T06:19:01.752Z,101466.63
2022-12-27T06:21:29.315Z,101461.97
2022-12-27T06:23:56.892Z,101468.34
2022-12-27T06:26:25.143Z,101451.66
2022-12-27T06:28:52.685Z,101450.81
2022-12-27T06:31:20.632Z,101461.94
2022-12-27T06:33:48.320Z,101473.09
2022-12-27T06:36:18.231Z,101469.38
2022-12-27T06:38:45.809Z,101473.13
2022-12-27T06:41:13.998Z,101467.63
2022-12-27T06:43:41.573Z,101473.28
2022-12-27T06:46:16.870Z,101489.59
2022-12-27T06:48:44.940Z,101484.69
2022-12-27T06:51:12.970Z,101491.50
2022-12-27T06:53:41.883Z,101490.00
2022-12-27T06:56:10.531Z,101495.66
2022-12-27T06:58:38.178Z,101495.19
2022-12-27T07:01:09.343Z,101490.84
2022-12-27T07:03:36.915Z,101496.06
2022-12-27T07:06:04.966Z,101498.88
2022-12-27T07:08:32.570Z,101503.47
2022-12-27T07:11:02.208Z,101512.13
2022-12-27T07:13:30.591Z,101516.66
2022-12-27T07:15:58.053Z,101520.41
2022-12-27T07:18:25.530Z,101526.25
2022-12-27T07:20:53.041Z,101526.50
2022-12-27T07:23:20.547Z,101519.94
2022-12-27T07:25:48.037Z,101525.72
2022-12-27T07:28:16.896Z,101540.53
2022-12-27T07:30:44.432Z,101534.47
2022-12-27T07:33:11.951Z,101544.06
2022-12-27T07:35:44.854Z,101549.34
2022-12-27T07:38:12.641Z,101561.81
2022-12-27T07:40:40.083Z,101563.75
2022-12-27T07:43:07.532Z,101570.38
2022-12-27T07:45:36.435Z,101569.38
2022-12-27T07:48:03.937Z,101558.13
2022-12-27T07:50:31.591Z,101567.09
2022-12-27T07:52:59.139Z,101581.00
2022-12-27T07:55:26.721Z,101574.44
2022-12-27T07:57:54.262Z,101577.44
2022-12-27T08:00:21.753Z,101570.88
2022-12-27T08:02:50.680Z,101569.50
2022-12-27T08:05:20.383Z,101585.00
2022-12-27T08:07:52.163Z,101578.81
2022-12-27T08:10:19.749Z,101583.97
2022-12-27T08:12:47.281Z,101572.31
2022-12-27T08:15:14.873Z,101591.84
2022-12-27T08:17:42.556Z,101596.34
2022-12-27T08:20:12.269Z,101580.41
2022-12-27T08:22:39.799Z,101590.66
2022-12-27T08:25:07.808Z,101611.88
2022-12-27T08:27:35.316Z,101602.63
2022-12-27T08:30:02.843Z,101604.50
2022-12-27T08:32:30.331Z,101600.22
2022-12-27T08:35:11.968Z,101606.69
2022-12-27T08:37:47.079Z,101608.94
2022-12-27T08:40:14.588Z,101613.28
2022-12-27T08:42:42.104Z,101609.63
2022-12-27T08:45:10.105Z,101610.53
2022-12-27T08:47:38.248Z,101621.41
2022-12-27T08:50:07.395Z,101622.81
2022-12-27T08:52:35.296Z,101631.13
2022-12-27T08:55:04.749Z,101628.53
2022-12-27T08:57:32.252Z,101618.50
2022-12-27T08:59:59.738Z,101630.66
2022-12-27T09:02:27.309Z,101625.28
2022-12-27T09:04:54.832Z,101622.53
2022-12-27T09:07:22.350Z,101621.06
2022-12-27T09:09:49.868Z,101633.31
2022-12-27T09:12:18.701Z,101636.03
2022-12-27T09:14:46.213Z,101633.84
2022-12-27T09:17:13.894Z,101635.91
2022-12-27T09:19:41.408Z,101637.75
2022-12-27T09:22:08.894Z,101640.34
2022-12-27T09:24:36.459Z,101629.19
2022-12-27T09:27:04.282Z,101637.19
2022-12-27T09:29:33.192Z,101651.66
2022-12-27T09:32:00.721Z,101630.91
2022-12-27T09:34:28.205Z,101646.00
2022-12-27T09:36:55.846Z,101640.59
2022-12-27T09:39:23.310Z,101628.53
2022-12-27T09:42:46.008Z,101651.03
2022-12-27T09:44:45.049Z,101626.00
2022-12-27T09:47:13.590Z,101639.94
2022-12-27T09:49:41.408Z,101630.63
2022-12-27T09:52:10.979Z,101638.78
2022-12-27T09:54:40.095Z,101645.75
2022-12-27T09:57:19.915Z,101639.59
2022-12-27T09:59:49.889Z,101642.22
2022-12-27T10:02:21.443Z,101644.44
2022-12-27T10:07:38.030Z,101640.09
2022-12-27T10:10:06.346Z,101650.25
2022-12-27T10:12:37.952Z,101658.34
2022-12-27T10:15:10.059Z,101659.41
2022-12-27T10:17:41.226Z,101657.59
2022-12-27T10:20:11.551Z,101654.94
2022-12-27T10:22:40.804Z,101670.69
2022-12-27T10:25:10.849Z,101671.88
2022-12-27T10:27:38.413Z,101657.88
2022-12-27T10:30:07.462Z,101655.94
2022-12-27T10:32:36.353Z,101657.88
2022-12-27T10:35:03.934Z,101668.75
2022-12-27T10:37:31.446Z,101663.50
2022-12-27T10:39:59.142Z,101660.94
2022-12-27T10:42:31.935Z,101675.06
2022-12-27T10:45:14.338Z,101660.06
2022-12-27T10:47:43.234Z,101659.31
2022-12-27T10:50:11.993Z,101654.25
2022-12-27T10:52:39.479Z,101676.00
2022-12-27T10:55:07.222Z,101658.34
2022-12-27T10:57:34.919Z,101661.66
2022-12-27T11:00:16.493Z,101647.41
2022-12-27T11:02:52.069Z,101666.47
2022-12-27T11:05:23.324Z,101655.97
2022-12-27T11:07:50.790Z,101663.66
2022-12-27T11:10:18.798Z,101668.41
2022-12-27T11:12:56.046Z,101660.84
2022-12-27T11:15:23.539Z,101666.81
2022-12-27T11:17:55.312Z,101665.75
2022-12-27T11:20:24.754Z,101686.28
2022-12-27T11:22:53.145Z,101678.31
2022-12-27T11:25:20.689Z,101677.91
2022-12-27T11:27:48.347Z,101680.66
2022-12-27T11:30:22.720Z,101674.38
2022-12-27T11:32:50.219Z,101665.06
2022-12-27T11:35:19.431Z,101672.97
2022-12-27T11:37:46.911Z,101659.88
2022-12-27T11:40:21.877Z,101679.38
2022-12-27T11:42:49.935Z,101654.13
2022-12-27T11:45:21.602Z,101662.31
2022-12-27T11:47:50.475Z,101661.03
2022-12-27T11:50:26.239Z,101668.28
2022-12-27T11:52:55.419Z,101656.59
2022-12-27T11:55:32.832Z,101659.88
2022-12-27T11:58:07.406Z,101670.47
2022-12-27T12:00:36.792Z,101663.72
2022-12-27T12:03:12.670Z,101673.63
2022-12-27T12:05:48.579Z,101674.75
2022-12-27T12:08:28.761Z,101673.75
2022-12-27T12:10:56.929Z,101659.31
2022-12-27T12:13:30.561Z,101682.06
2022-12-27T12:16:01.867Z,101667.41
2022-12-27T12:18:32.228Z,101653.22
2022-12-27T12:21:11.160Z,101657.94
2022-12-27T12:23:46.248Z,101668.72
2022-12-27T12:26:14.774Z,101665.28
2022-12-27T12:29:00.135Z,101658.72
2022-12-27T12:31:36.123Z,101663.66
2022-12-27T12:34:11.099Z,101642.88
2022-12-27T12:36:49.162Z,101650.59
2022-12-27T12:39:21.647Z,101651.97
2022-12-27T12:42:11.339Z,101642.16
2022-12-27T12:44:43.804Z,101622.75
2022-12-27T12:47:14.786Z,101632.13
2022-12-27T12:49:58.881Z,101634.00
2022-12-27T12:52:37.098Z,101626.97
2022-12-27T12:55:06.752Z,101630.06
2022-12-27T12:57:38.897Z,101629.53
2022-12-27T13:00:23.143Z,101620.09
2022-12-27T13:02:59.332Z,101607.91
2022-12-27T13:05:29.356Z,101608.59
2022-12-27T13:08:02.963Z,101607.38
2022-12-27T13:10:35.749Z,101598.69
2022-12-27T13:13:04.726Z,101618.56
2022-12-27T13:15:34.452Z,101601.47
2022-12-27T13:18:04.552Z,101595.84
2022-12-27T13:20:51.987Z,101602.44
2022-12-27T13:23:23.934Z,101579.22
2022-12-27T13:25:52.595Z,101590.94
2022-12-27T13:28:26.647Z,101587.41
2022-12-27T13:30:56.470Z,101578.03
2022-12-27T13:33:26.022Z,101571.53
2022-12-27T13:36:00.910Z,101564.31
2022-12-27T13:38:34.787Z,101577.00
2022-12-27T13:41:15.878Z,101564.75
2022-12-27T13:43:51.637Z,101569.38
2022-12-27T13:46:27.032Z,101567.66
2022-12-27T13:49:01.775Z,101554.97
2022-12-27T13:51:38.596Z,101548.00
2022-12-27T13:54:12.714Z,101526.38
2022-12-27T13:56:53.863Z,101527.88
2022-12-27T13:59:28.327Z,101506.56
2022-12-27T14:02:07.975Z,101531.13
2022-12-27T14:04:42.112Z,101520.66
2022-12-27T14:07:13.927Z,101531.47
2022-12-27T14:10:00.440Z,101518.28
2022-12-27T14:12:38.022Z,101508.34
2022-12-27T14:15:06.635Z,101508.34
2022-12-27T14:17:34.665Z,101500.59
2022-12-27T14:20:04.706Z,101497.69
2022-12-27T14:22:52.494Z,101504.53
2022-12-27T14:25:46.987Z,101500.94
2022-12-27T14:28:33.430Z,101497.41
2022-12-27T14:31:19.671Z,101504.50
2022-12-27T14:34:11.199Z,101494.56
2022-12-27T14:36:56.324Z,101515.75
2022-12-27T14:39:31.993Z,101499.59
2022-12-27T14:42:18.100Z,101499.38
2022-12-27T14:45:00.512Z,101507.78
2022-12-27T14:47:40.111Z,101495.28
2022-12-27T14:50:19.803Z,101487.16
2022-12-27T14:53:02.058Z,101495.66
2022-12-27T14:55:37.480Z,101482.22
2022-12-27T14:58:12.328Z,101482.47
2022-12-27T15:00:51.221Z,101479.31
2022-12-27T15:03:21.634Z,101464.97
2022-12-27T15:05:56.649Z,101480.63
2022-12-27T15:08:27.862Z,101474.34
2022-12-27T15:11:00.845Z,101481.91
2022-12-27T15:13:32.428Z,101494.66
2022-12-27T15:16:01.156Z,101491.38
2022-12-27T15:18:36.936Z,101474.84
2022-12-27T15:21:19.338Z,101473.34
2022-12-27T15:23:48.804Z,101472.34
2022-12-27T15:26:18.735Z,101475.00
2022-12-27T15:28:49.407Z,101479.44
2022-12-27T15:31:22.736Z,101486.25
2022-12-27T15:33:53.191Z,101473.63
2022-12-27T15:36:21.438Z,101460.56
2022-12-27T15:38:54.169Z,101465.47
2022-12-27T15:41:23.925Z,101448.19
2022-12-27T15:44:09.727Z,101459.03
2022-12-27T15:46:47.636Z,101466.59
2022-12-27T15:49:20.115Z,101465.69
2022-12-27T15:51:49.036Z,101474.41
2022-12-27T15:54:22.244Z,101468.66
2022-12-27T15:56:52.719Z,101472.38
2022-12-27T15:59:41.349Z,101452.75
2022-12-27T16:02:42.283Z,101464.75
2022-12-27T16:05:35.265Z,101461.06
2022-12-27T16:08:21.300Z,101458.03
2022-12-27T16:10:49.879Z,101460.31
2022-12-27T16:13:28.556Z,101464.41
2022-12-27T16:15:56.688Z,101433.25
2022-12-27T16:18:40.208Z,101452.91
2022-12-27T16:21:10.447Z,101457.25
2022-12-27T16:23:38.380Z,101455.34
2022-12-27T16:26:06.458Z,101451.47
2022-12-27T16:28:34.409Z,101451.19
2022-12-27T16:31:02.105Z,101449.03
2022-12-27T16:33:31.532Z,101447.47
2022-12-27T16:36:15.976Z,101431.88
2022-12-27T16:38:46.070Z,101436.88
2022-12-27T16:41:15.145Z,101429.53
2022-12-27T16:43:52.251Z,101444.22
2022-12-27T16:46:21.715Z,101446.28
2022-12-27T16:48:54.518Z,101452.28
2022-12-27T16:51:24.104Z,101446.72
2022-12-27T16:53:55.876Z,101449.84
2022-12-27T16:56:23.968Z,101438.31
2022-12-27T16:58:51.590Z,101429.50
2022-12-27T17:01:56.681Z,101444.50
2022-12-27T17:04:42.751Z,101446.81
2022-12-27T17:07:21.853Z,101448.59
2022-12-27T17:09:49.383Z,101437.78
2022-12-27T17:12:18.932Z,101450.00
2022-12-27T17:14:46.440Z,101435.44
2022-12-27T17:17:15.914Z,101436.06
2022-12-27T17:19:45.229Z,101433.50
2022-12-27T17:22:15.369Z,101412.59
2022-12-27T17:24:43.243Z,101427.28
2022-12-27T17:27:13.055Z,101414.84
2022-12-27T17:30:07.793Z,101412.69
2022-12-27T17:32:42.003Z,101377.78
2022-12-27T17:35:11.113Z,101388.41
2022-12-27T17:37:40.927Z,101381.19
2022-12-27T17:40:15.575Z,101376.56
2022-12-27T17:43:03.238Z,101366.06
2022-12-27T17:45:33.933Z,101364.84
2022-12-27T17:48:07.115Z,101347.50
2022-12-27T17:50:34.660Z,101355.22
2022-12-27T17:53:36.842Z,101348.91
2022-12-27T17:56:36.943Z,101348.53
2022-12-27T17:59:05.713Z,101345.47
2022-12-27T18:01:33.891Z,101339.03
2022-12-27T18:04:01.439Z,101328.66
2022-12-27T18:06:30.522Z,101320.84
2022-12-27T18:08:59.370Z,101305.22
2022-12-27T18:11:28.217Z,101300.88
2022-12-27T18:13:58.897Z,101315.38
2022-12-27T18:16:28.193Z,101307.59
2022-12-27T18:18:59.771Z,101311.97
2022-12-27T18:21:28.318Z,101304.41
2022-12-27T18:23:55.915Z,101300.75
2022-12-27T18:26:32.715Z,101311.81
2022-12-27T18:29:00.200Z,101311.81
2022-12-27T18:31:28.058Z,101300.22
2022-12-27T18:33:56.292Z,101308.47
2022-12-27T18:36:25.163Z,101312.69
2022-12-27T18:38:54.010Z,101312.63
2022-12-27T18:41:21.851Z,101304.28
2022-12-27T18:43:51.436Z,101299.16
2022-12-27T18:46:19.391Z,101295.03
2022-12-27T18:48:47.003Z,101306.03
2022-12-27T18:51:14.517Z,101293.41
2022-12-27T18:53:42.098Z,101280.75
2022-12-27T18:56:24.245Z,101290.03
2022-12-27T18:59:00.988Z,101265.59
2022-12-27T19:01:35.758Z,101285.00
2022-12-27T19:04:18.221Z,101282.03
2022-12-27T19:06:47.112Z,101287.06
2022-12-27T19:09:14.718Z,101284.09
2022-12-27T19:11:42.237Z,101278.72
2022-12-27T19:14:14.171Z,101268.94
2022-12-27T19:16:45.611Z,101281.47
2022-12-27T19:19:16.173Z,101265.19
2022-12-27T19:21:43.643Z,101266.91
2022-12-27T19:24:22.125Z,101261.47
2022-12-27T19:26:49.639Z,101268.44
2022-12-27T19:29:19.000Z,101245.81
2022-12-27T19:31:52.209Z,101233.38
2022-12-27T19:34:19.701Z,101232.41
2022-12-27T19:36:47.266Z,101245.59
2022-12-27T19:39:18.352Z,101239.63
2022-12-27T19:41:45.842Z,101221.91
2022-12-27T19:44:13.381Z,101219.44
2022-12-27T19:46:42.248Z,101223.56
2022-12-27T19:51:57.346Z,101219.50
2022-12-27T19:54:24.984Z,101221.97
2022-12-27T19:56:53.052Z,101216.78
2022-12-27T19:59:21.219Z,101204.16
2022-12-27T20:01:50.342Z,101204.84
2022-12-27T20:04:18.417Z,101210.78
2022-12-27T20:06:46.297Z,101214.72
2022-12-27T20:09:16.555Z,101218.88
2022-12-27T20:11:44.050Z,101197.91
2022-12-27T20:14:11.521Z,101201.22
2022-12-27T20:16:39.081Z,101194.25
2022-12-27T20:19:08.060Z,101202.09
2022-12-27T20:21:35.553Z,101196.28
2022-12-27T20:24:03.322Z,101199.81
2022-12-27T20:26:30.852Z,101190.13
2022-12-27T20:28:59.536Z,101196.63
2022-12-27T20:31:27.184Z,101186.53
2022-12-27T20:33:56.058Z,101198.84
2022-12-27T20:36:25.175Z,101182.66
2022-12-27T20:38:52.648Z,101179.16
2022-12-27T20:41:21.301Z,101185.34
2022-12-27T20:43:48.761Z,101186.03
2022-12-27T20:46:16.705Z,101171.44
2022-12-27T20:48:44.853Z,101168.28
2022-12-27T20:51:13.126Z,101172.53
2022-12-27T20:53:42.294Z,101170.69
2022-12-27T20:56:11.031Z,101169.31
2022-12-27T20:58:38.510Z,101165.78
2022-12-27T21:01:06.760Z,101167.38
2022-12-27T21:03:34.434Z,101159.44
2022-12-27T21:06:05.661Z,101158.88
2022-12-27T21:08:35.057Z,101160.56
2022-12-27T21:11:08.673Z,101156.06
2022-12-27T21:13:36.902Z,101146.50
2022-12-27T21:16:04.591Z,101127.75
2022-12-27T21:18:32.360Z,101135.28
2022-12-27T21:21:03.014Z,101133.41
2022-12-27T21:23:32.087Z,101149.94
2022-12-27T21:26:03.478Z,101142.44
2022-12-27T21:28:32.359Z,101138.22
2022-12-27T21:31:00.070Z,101122.47
2022-12-27T21:33:28.393Z,101135.53
2022-12-27T21:35:56.776Z,101111.28
2022-12-27T21:38:24.363Z,101123.16
2022-12-27T21:40:58.325Z,101128.13
2022-12-27T21:43:28.673Z,101114.81
2022-12-27T21:45:57.945Z,101113.22
2022-12-27T21:48:25.654Z,101096.13
2022-12-27T21:50:53.178Z,101095.13
2022-12-27T21:53:20.855Z,101082.00
2022-12-27T21:55:48.430Z,101090.84
2022-12-27T21:58:17.021Z,101073.66
2022-12-27T22:00:44.578Z,101079.34
2022-12-27T22:03:13.557Z,101076.53
2022-12-27T22:05:41.180Z,101062.38
2022-12-27T22:08:08.767Z,101064.00
2022-12-27T22:10:36.279Z,101065.47
2022-12-27T22:13:03.831Z,101057.22
2022-12-27T22:15:31.313Z,101059.69
2022-12-27T22:17:58.873Z,101038.84
2022-12-27T22:20:27.747Z,101040.38
2022-12-27T22:22:55.233Z,101050.09
2022-12-27T22:25:22.682Z,101027.13
2022-12-27T22:27:50.172Z,101030.03
2022-12-27T22:30:17.772Z,101029.06
2022-12-27T22:32:45.260Z,101014.56
2022-12-27T22:35:12.813Z,101012.25
2022-12-27T22:37:41.699Z,101014.00
2022-12-27T22:40:30.862Z,101011.81
2022-12-27T22:42:57.289Z,100999.06
2022-12-27T22:45:24.830Z,100990.97
2022-12-27T22:47:52.451Z,100990.84
2022-12-27T22:50:20.046Z,100994.03
2022-12-27T22:52:49.053Z,101008.16
2022-12-27T22:55:16.606Z,100984.97
2022-12-27T22:57:44.151Z,100976.25
2022-12-27T23:00:14.272Z,100989.91
2022-12-27T23:02:41.917Z,100974.34
2022-12-27T23:05:09.640Z,100985.38
2022-12-27T23:08:04.220Z,100948.78
2022-12-27T23:10:26.352Z,100945.00
2022-12-27T23:12:53.843Z,100930.53
2022-12-27T23:15:21.318Z,100943.06
2022-12-27T23:17:48.815Z,100935.13
2022-12-27T23:20:16.364Z,100918.44
2022-12-27T23:22:43.858Z,100922.78
2022-12-27T23:25:11.378Z,100926.56
2022-12-27T23:27:40.254Z,100909.97
2022-12-27T23:30:08.174Z,100909.13
2022-12-27T23:32:35.653Z,100902.84
2022-12-27T23:35:03.158Z,100885.75
2022-12-27T23:37:30.662Z,100903.06
2022-12-27T23:39:58.216Z,100889.25
2022-12-27T23:42:25.722Z,100895.47
2022-12-27T23:44:54.758Z,100896.69
2022-12-27T23:47:22.289Z,100898.34
2022-12-27T23:49:49.726Z,100895.94
2022-12-27T23:52:18.503Z,100881.84
2022-12-27T23:54:45.959Z,100868.09
2022-12-27T23:57:19.978Z,100856.31
2022-12-27T23:59:49.350Z,100841.59
